Time;durP1;ratioP1;P1;durP2;ratioP2;P2;SDS_P1;SDS_P2;PMS_P1;PMS_P2;Temp;Humidity;BMP_temperature;BMP_pressure;BME280_temperature;BME280_humidity;BME280_pressure;Samples;Min_cycle;Max_cycle;Signal;HPM_P1;HPM_P2
2023/05/02 00:00:32;;;;;;;23.08;14.18;;;12.30;96.00;;;;;;5071856;28;20020;-72
2023/05/02 00:02:59;;;;;;;22.20;12.85;;;12.30;96.00;;;;;;5071904;28;20107;-74
2023/05/02 00:05:25;;;;;;;22.95;12.75;;;12.40;96.10;;;;;;5073205;28;20107;-73
2023/05/02 00:07:51;;;;;;;24.88;12.38;;;12.30;96.20;;;;;;5073210;28;20081;-73
2023/05/02 00:10:17;;;;;;;22.98;11.45;;;12.30;96.20;;;;;;5072967;28;20028;-73
2023/05/02 00:12:43;;;;;;;21.33;12.05;;;12.30;96.30;;;;;;5071661;28;20496;-75
2023/05/02 00:15:09;;;;;;;21.95;10.80;;;12.30;96.40;;;;;;5073037;28;20108;-73
2023/05/02 00:17:36;;;;;;;18.48;10.77;;;12.30;96.50;;;;;;5072967;28;20038;-73
2023/05/02 00:20:05;;;;;;;18.88;10.27;;;12.30;96.50;;;;;;5071766;28;20032;-73
2023/05/02 00:22:31;;;;;;;22.10;11.68;;;12.20;96.60;;;;;;5073025;28;20078;-73
2023/05/02 00:24:57;;;;;;;22.27;11.95;;;12.20;97.00;;;;;;5072893;28;20028;-73
2023/05/02 00:27:23;;;;;;;19.35;11.20;;;12.20;96.80;;;;;;5072895;28;20025;-73
2023/05/02 00:29:51;;;;;;;22.95;13.30;;;12.20;97.00;;;;;;5072852;28;20049;-74
2023/05/02 00:32:17;;;;;;;22.52;12.70;;;12.20;97.10;;;;;;5072837;28;20016;-72
2023/05/02 00:34:43;;;;;;;18.70;11.52;;;12.20;97.30;;;;;;5072622;28;20067;-74
2023/05/02 00:37:08;;;;;;;17.77;10.68;;;12.20;97.30;;;;;;5072796;28;20017;-75
2023/05/02 00:39:34;;;;;;;23.42;12.25;;;12.20;97.30;;;;;;5071429;28;20028;-75
2023/05/02 00:42:01;;;;;;;24.80;14.88;;;12.10;97.50;;;;;;5071548;28;20021;-72
2023/05/02 00:44:27;;;;;;;20.52;12.75;;;12.10;97.60;;;;;;5072743;28;20071;-72
2023/05/02 00:46:56;;;;;;;22.38;12.75;;;12.10;97.60;;;;;;5072843;28;20020;-73
2023/05/02 00:49:22;;;;;;;25.27;14.55;;;12.10;97.70;;;;;;5072550;28;20028;-73
2023/05/02 00:51:47;;;;;;;23.05;14.18;;;12.10;97.90;;;;;;5071627;28;20073;-73
2023/05/02 00:54:13;;;;;;;27.73;15.50;;;12.10;98.10;;;;;;5072620;28;20381;-73
2023/05/02 00:56:39;;;;;;;23.33;13.73;;;12.10;98.30;;;;;;5071258;28;20021;-73
2023/05/02 00:59:07;;;;;;;22.95;14.23;;;12.10;98.20;;;;;;5072651;28;20024;-73
2023/05/02 01:01:56;;;;;;;29.38;16.40;;;12.10;98.40;;;;;;5075673;28;20020;-73
2023/05/02 01:04:28;;;;;;;32.60;16.92;;;12.10;98.30;;;;;;5076338;28;20028;-73
2023/05/02 01:07:15;;;;;;;30.27;17.05;;;12.00;98.50;;;;;;5076352;28;20029;-74
2023/05/02 01:09:49;;;;;;;27.98;15.90;;;12.10;98.60;;;;;;5076138;28;20414;-73
2023/05/02 01:12:34;;;;;;;28.58;16.60;;;12.00;98.40;;;;;;5076184;28;20032;-73
2023/05/02 01:15:04;;;;;;;23.73;15.25;;;12.00;98.40;;;;;;5076105;28;20013;-72
2023/05/02 01:17:33;;;;;;;29.48;16.50;;;12.10;98.40;;;;;;5076167;28;20070;-81
2023/05/02 01:20:03;;;;;;;27.85;15.70;;;12.00;98.60;;;;;;5075892;28;20354;-83
2023/05/02 01:22:31;;;;;;;30.55;17.55;;;12.10;98.70;;;;;;5075975;28;20028;-81
2023/05/02 01:25:06;;;;;;;24.90;14.73;;;12.10;98.70;;;;;;5058258;28;20369;-82
2023/05/02 01:27:47;;;;;;;23.35;14.45;;;12.10;98.70;;;;;;5075855;28;20029;-82
2023/05/02 01:30:16;;;;;;;28.03;15.97;;;12.10;98.80;;;;;;5075785;28;20097;-82
2023/05/02 01:32:45;;;;;;;26.40;15.55;;;12.00;98.80;;;;;;5075630;28;20021;-80
2023/05/02 01:35:14;;;;;;;22.77;14.73;;;12.10;98.90;;;;;;5074213;28;20388;-82
2023/05/02 01:37:41;;;;;;;26.75;15.43;;;12.10;98.90;;;;;;5074359;28;20020;-81
2023/05/02 01:40:09;;;;;;;34.75;17.05;;;12.10;99.40;;;;;;5075640;28;20038;-80
2023/05/02 01:42:36;;;;;;;26.90;16.15;;;12.00;99.70;;;;;;5070237;28;20101;-81
2023/05/02 01:45:04;;;;;;;28.45;14.20;;;12.00;99.80;;;;;;5065592;28;20147;-80
2023/05/02 01:47:34;;;;;;;26.63;14.85;;;12.00;99.80;;;;;;5055370;28;20021;-81
2023/05/02 01:50:04;;;;;;;26.52;14.52;;;12.00;99.90;;;;;;5055244;28;20024;-80
2023/05/02 01:52:30;;;;;;;28.48;15.82;;;12.00;99.90;;;;;;5055361;28;20025;-81
2023/05/02 01:54:58;;;;;;;28.73;16.17;;;11.90;99.90;;;;;;5070963;28;20367;-82
2023/05/02 01:57:24;;;;;;;27.27;15.85;;;11.90;99.90;;;;;;5055273;28;20052;-82
2023/05/02 01:59:51;;;;;;;26.98;13.93;;;11.90;99.90;;;;;;5070984;28;20029;-81
2023/05/02 02:02:18;;;;;;;27.75;15.00;;;11.90;99.90;;;;;;5055381;28;20099;-82
2023/05/02 02:04:47;;;;;;;20.23;13.35;;;11.90;99.90;;;;;;5055195;28;20032;-80
2023/05/02 02:07:13;;;;;;;30.17;13.23;;;11.90;99.90;;;;;;5055190;28;20021;-80
2023/05/02 02:09:40;;;;;;;15.77;9.77;;;11.90;99.90;;;;;;5070631;28;20028;-82
2023/05/02 02:12:11;;;;;;;16.98;9.10;;;11.80;99.90;;;;;;5054607;28;20031;-82
2023/05/02 02:14:39;;;;;;;18.93;9.63;;;11.90;99.90;;;;;;5055081;28;20055;-82
2023/05/02 02:17:14;;;;;;;16.43;8.00;;;11.80;99.90;;;;;;5054929;28;20029;-81
2023/05/02 02:19:41;;;;;;;17.75;7.55;;;11.90;99.90;;;;;;5070160;28;20029;-80
2023/05/02 02:22:08;;;;;;;19.83;7.13;;;11.80;99.90;;;;;;5070350;28;20096;-81
2023/05/02 02:24:36;;;;;;;16.03;6.37;;;11.90;99.90;;;;;;5070191;28;20457;-80
2023/05/02 02:27:02;;;;;;;16.00;5.80;;;11.80;99.90;;;;;;5070211;28;20383;-82
2023/05/02 02:29:28;;;;;;;14.57;6.00;;;11.80;99.90;;;;;;5069874;28;20143;-81
2023/05/02 02:31:53;;;;;;;19.70;5.67;;;11.80;99.90;;;;;;5070061;28;20048;-82
2023/05/02 02:34:20;;;;;;;13.77;6.45;;;11.70;99.90;;;;;;5054484;28;20041;-82
2023/05/02 02:36:51;;;;;;;17.27;5.25;;;11.70;99.90;;;;;;5069969;28;20033;-80
2023/05/02 02:39:35;;;;;;;10.30;5.13;;;11.70;99.90;;;;;;5054499;28;20079;-82
2023/05/02 02:42:27;;;;;;;17.17;5.50;;;11.60;99.90;;;;;;5069860;28;20481;-83
2023/05/02 02:45:19;;;;;;;18.65;4.47;;;11.70;99.90;;;;;;5054491;28;20539;-81
2023/05/02 02:47:57;;;;;;;13.90;3.10;;;11.60;99.90;;;;;;5054469;28;20029;-81
2023/05/02 02:50:31;;;;;;;10.30;2.90;;;11.60;99.90;;;;;;5054450;28;20033;-83
2023/05/02 02:53:04;;;;;;;7.97;2.50;;;11.50;99.90;;;;;;5054393;28;20094;-81
2023/05/02 02:55:44;;;;;;;10.88;3.78;;;11.50;99.90;;;;;;5069577;28;20450;-81
2023/05/02 02:58:28;;;;;;;9.23;2.92;;;11.50;99.90;;;;;;5054057;28;20131;-81
2023/05/02 03:00:54;;;;;;;;;;;11.50;99.90;;;;;;5054473;28;20120;-80
2023/05/02 03:03:27;;;;;;;8.57;2.43;;;11.50;99.90;;;;;;5054032;28;19919;-79
2023/05/02 03:05:55;;;;;;;11.00;2.80;;;11.40;99.90;;;;;;5053994;28;20417;-81
2023/05/02 03:08:21;;;;;;;14.60;2.70;;;11.40;99.90;;;;;;5053822;28;20025;-81
2023/05/02 03:10:46;;;;;;;7.27;2.37;;;11.40;99.90;;;;;;5054051;28;20164;-81
2023/05/02 03:13:12;;;;;;;8.10;2.07;;;11.30;99.90;;;;;;5053754;28;20029;-81
2023/05/02 03:15:38;;;;;;;12.70;2.70;;;11.30;99.90;;;;;;5069217;28;20027;-82
2023/05/02 03:18:03;;;;;;;9.30;2.20;;;11.30;99.90;;;;;;5053706;28;20024;-81
2023/05/02 03:20:29;;;;;;;11.90;2.17;;;11.30;99.90;;;;;;5052670;28;20385;-82
2023/05/02 03:22:54;;;;;;;9.07;2.40;;;11.30;99.90;;;;;;5068439;28;20033;-80
2023/05/02 03:25:20;;;;;;;9.80;1.97;;;11.30;99.90;;;;;;5053622;28;20044;-82
2023/05/02 03:27:47;;;;;;;7.57;1.93;;;11.30;99.90;;;;;;5068923;28;20033;-80
2023/05/02 03:30:12;;;;;;;11.60;2.17;;;11.20;99.90;;;;;;5053702;28;20105;-80
2023/05/02 03:32:38;;;;;;;10.67;2.00;;;11.20;99.90;;;;;;5053595;28;20450;-80
2023/05/02 03:35:04;;;;;;;9.97;2.40;;;11.20;99.90;;;;;;5068921;28;20048;-81
2023/05/02 03:37:30;;;;;;;7.37;1.47;;;11.10;99.90;;;;;;5053606;28;20056;-81
2023/05/02 03:39:55;;;;;;;6.53;1.50;;;11.00;99.80;;;;;;5053497;28;20076;-81
2023/05/02 03:42:21;;;;;;;11.63;1.93;;;11.00;99.90;;;;;;5068916;28;20384;-82
2023/05/02 03:44:47;;;;;;;9.03;2.13;;;10.90;99.70;;;;;;5053346;28;20040;-79
2023/05/02 03:47:13;;;;;;;8.40;1.70;;;10.80;99.70;;;;;;5053342;28;20041;-81
2023/05/02 03:49:39;;;;;;;12.63;2.40;;;10.80;99.90;;;;;;5068765;28;20036;-82
2023/05/02 03:52:04;;;;;;;7.90;1.70;;;10.80;99.80;;;;;;5053196;28;20543;-82
2023/05/02 03:54:33;;;;;;;7.90;2.17;;;10.80;99.90;;;;;;5068823;28;20492;-81
2023/05/02 03:56:59;;;;;;;10.93;1.53;;;10.80;99.90;;;;;;5053020;28;20391;-81
2023/05/02 03:59:26;;;;;;;12.20;2.30;;;10.80;99.90;;;;;;5053139;28;20033;-81
2023/05/02 04:01:51;;;;;;;12.00;1.90;;;10.80;99.90;;;;;;5053136;28;20485;-81
2023/05/02 04:04:17;;;;;;;10.17;1.93;;;10.80;99.90;;;;;;5068572;28;20037;-82
2023/05/02 04:06:43;;;;;;;6.13;1.50;;;10.80;99.90;;;;;;5068603;28;20035;-83
2023/05/02 04:09:08;;;;;;;8.60;1.50;;;10.80;99.80;;;;;;5068616;28;20040;-81
2023/05/02 04:11:34;;;;;;;6.80;1.27;;;10.80;99.80;;;;;;5052770;28;20033;-82
2023/05/02 04:14:00;;;;;;;7.10;1.80;;;10.80;99.70;;;;;;5067073;28;20082;-82
2023/05/02 04:16:25;;;;;;;10.67;1.80;;;10.80;99.60;;;;;;5071458;28;20083;-81
2023/05/02 04:18:51;;;;;;;8.53;1.53;;;10.70;99.60;;;;;;5071757;28;20061;-81
2023/05/02 04:21:17;;;;;;;12.67;2.10;;;10.70;99.40;;;;;;5072345;28;20047;-82
2023/05/02 04:23:42;;;;;;;11.80;1.93;;;10.60;99.20;;;;;;5073047;28;20024;-82
2023/05/02 04:26:08;;;;;;;7.83;1.53;;;10.70;99.40;;;;;;5071519;28;20033;-84
2023/05/02 04:28:34;;;;;;;5.53;1.33;;;10.60;99.30;;;;;;5072317;28;20043;-83
2023/05/02 04:31:02;;;;;;;8.73;1.37;;;10.70;99.30;;;;;;5071656;28;20033;-83
2023/05/02 04:33:27;;;;;;;5.73;1.27;;;10.70;99.30;;;;;;5072911;28;20036;-82
2023/05/02 04:35:53;;;;;;;7.93;1.33;;;10.70;99.10;;;;;;5075524;28;20049;-80
2023/05/02 04:38:18;;;;;;;10.00;1.83;;;10.70;99.20;;;;;;5075587;28;20028;-82
2023/05/02 04:40:44;;;;;;;6.57;1.87;;;10.70;99.10;;;;;;5075557;28;20024;-83
2023/05/02 04:43:10;;;;;;;8.37;1.47;;;10.70;99.00;;;;;;5076948;28;20078;-82
2023/05/02 04:45:36;;;;;;;11.27;1.67;;;10.70;99.00;;;;;;5076814;28;20028;-82
2023/05/02 04:48:02;;;;;;;9.00;1.33;;;10.80;98.90;;;;;;5075234;28;20028;-82
2023/05/02 04:50:28;;;;;;;8.73;1.20;;;10.80;98.70;;;;;;5076720;28;20388;-82
2023/05/02 04:52:54;;;;;;;8.57;1.10;;;10.80;98.30;;;;;;5076540;28;20034;-82
2023/05/02 04:55:20;;;;;;;9.27;1.13;;;10.80;98.10;;;;;;5075200;28;20098;-84
2023/05/02 04:57:45;;;;;;;8.13;0.97;;;10.80;98.00;;;;;;5075238;28;20044;-82
2023/05/02 05:00:11;;;;;;;9.47;1.20;;;10.90;97.70;;;;;;5075113;28;20055;-81
2023/05/02 05:02:38;;;;;;;6.57;1.70;;;10.90;97.40;;;;;;5076451;28;20107;-82
2023/05/02 05:05:04;;;;;;;10.27;1.43;;;10.90;97.20;;;;;;5074988;28;20024;-82
2023/05/02 05:07:30;;;;;;;7.60;1.10;;;11.00;96.60;;;;;;5074875;28;20041;-82
2023/05/02 05:09:56;;;;;;;11.00;1.90;;;11.00;96.50;;;;;;5063203;28;20029;-82
2023/05/02 05:12:22;;;;;;;7.80;1.40;;;11.00;96.10;;;;;;5057606;28;20033;-81
2023/05/02 05:14:49;;;;;;;6.57;1.10;;;11.10;95.80;;;;;;5072292;28;20028;-82
2023/05/02 05:17:14;;;;;;;5.72;1.33;;;11.10;95.50;;;;;;5075650;28;20028;-81
2023/05/02 05:19:40;;;;;;;6.53;0.97;;;11.20;95.50;;;;;;5074120;28;20532;-81
2023/05/02 05:22:06;;;;;;;7.17;1.17;;;11.20;95.10;;;;;;5074944;28;20021;-80
2023/05/02 05:24:32;;;;;;;6.13;1.40;;;11.20;94.60;;;;;;5075792;28;20020;-80
2023/05/02 05:26:57;;;;;;;6.90;1.23;;;11.20;93.70;;;;;;5071314;28;20020;-81
2023/05/02 05:29:24;;;;;;;10.25;1.60;;;11.20;93.60;;;;;;5085864;28;20554;-81
2023/05/02 05:31:50;;;;;;;11.50;1.80;;;11.20;93.10;;;;;;5070233;28;20040;-82
2023/05/02 05:34:15;;;;;;;9.67;1.50;;;11.20;93.00;;;;;;5056319;28;20120;-81
2023/05/02 05:36:41;;;;;;;7.45;1.40;;;11.20;92.60;;;;;;5072397;28;20041;-82
2023/05/02 05:39:07;;;;;;;8.63;1.67;;;11.20;92.50;;;;;;5060053;28;20441;-84
2023/05/02 05:41:34;;;;;;;7.83;1.70;;;11.20;92.30;;;;;;5053947;28;20059;-83
2023/05/02 05:43:59;;;;;;;8.77;1.27;;;11.20;92.40;;;;;;5064824;28;20024;-82
2023/05/02 05:46:25;;;;;;;6.73;1.17;;;11.20;92.30;;;;;;5074836;28;20025;-82
2023/05/02 05:48:51;;;;;;;14.27;1.80;;;11.30;92.00;;;;;;5074255;28;20025;-82
2023/05/02 05:51:17;;;;;;;9.07;1.77;;;11.30;92.00;;;;;;5075207;28;20082;-83
2023/05/02 05:53:42;;;;;;;7.87;1.60;;;11.30;91.90;;;;;;5075552;28;20358;-84
2023/05/02 05:56:12;;;;;;;8.65;1.65;;;11.30;91.60;;;;;;5074486;28;20067;-82
2023/05/02 05:58:38;;;;;;;6.93;1.50;;;11.30;91.50;;;;;;5075323;28;20032;-80
2023/05/02 06:01:04;;;;;;;7.27;1.23;;;11.30;91.50;;;;;;5074160;28;20476;-81
2023/05/02 06:03:30;;;;;;;7.22;1.23;;;11.30;91.60;;;;;;5075229;28;20104;-82
2023/05/02 06:05:56;;;;;;;10.68;1.73;;;11.40;91.70;;;;;;5074632;28;20031;-80
2023/05/02 06:08:21;;;;;;;9.05;1.50;;;11.40;91.70;;;;;;5075244;28;20078;-78
2023/05/02 06:10:47;;;;;;;5.32;1.00;;;11.50;91.70;;;;;;5073854;28;20542;-80
2023/05/02 06:13:12;;;;;;;11.20;1.55;;;11.50;91.70;;;;;;5072077;28;20029;-80
2023/05/02 06:15:38;;;;;;;8.27;1.48;;;11.60;91.70;;;;;;5070540;28;20025;-81
2023/05/02 06:18:04;;;;;;;8.90;1.30;;;11.70;91.60;;;;;;5053651;28;20029;-81
2023/05/02 06:20:29;;;;;;;7.80;1.50;;;11.70;91.50;;;;;;5055053;28;20044;-80
2023/05/02 06:22:55;;;;;;;9.75;1.55;;;11.80;91.40;;;;;;5055188;28;20029;-80
2023/05/02 06:25:20;;;;;;;7.85;1.25;;;11.80;91.20;;;;;;5053900;28;20120;-81
2023/05/02 06:27:46;;;;;;;8.90;1.45;;;11.90;91.00;;;;;;5053851;28;20032;-78
2023/05/02 06:30:12;;;;;;;7.88;1.42;;;12.00;90.80;;;;;;5055043;28;20116;-79
2023/05/02 06:32:38;;;;;;;10.68;1.98;;;12.00;90.60;;;;;;5053962;28;20037;-80
2023/05/02 06:35:03;;;;;;;8.82;1.63;;;12.00;90.40;;;;;;5036871;28;20049;-79
2023/05/02 06:37:35;;;;;;;9.85;1.83;;;12.10;90.20;;;;;;5036905;28;20033;-80
2023/05/02 06:40:01;;;;;;;8.85;1.27;;;12.20;90.00;;;;;;5053293;28;20044;-79
2023/05/02 06:42:28;;;;;;;6.43;1.50;;;12.20;89.60;;;;;;5053720;28;20033;-81
2023/05/02 06:44:54;;;;;;;8.02;1.95;;;12.30;89.20;;;;;;5053352;28;20095;-80
2023/05/02 06:47:21;;;;;;;11.00;1.85;;;12.40;88.80;;;;;;5054456;28;20493;-80
2023/05/02 06:49:46;;;;;;;10.80;1.63;;;12.50;88.30;;;;;;5053327;28;20029;-78
2023/05/02 06:52:12;;;;;;;10.98;1.85;;;12.50;87.80;;;;;;5053382;28;20078;-81
2023/05/02 06:54:38;;;;;;;9.32;1.30;;;12.50;87.30;;;;;;5053293;28;20043;-82
2023/05/02 06:57:04;;;;;;;9.65;1.52;;;12.60;87.00;;;;;;5053617;28;20496;-81
2023/05/02 06:59:30;;;;;;;8.88;1.38;;;12.70;86.70;;;;;;5053653;28;20108;-81
2023/05/02 07:01:55;;;;;;;10.00;1.88;;;12.70;86.20;;;;;;5054303;28;20021;-80
2023/05/02 07:04:21;;;;;;;7.15;1.05;;;12.70;85.70;;;;;;5036295;28;20021;-82
2023/05/02 07:06:47;;;;;;;6.65;1.20;;;12.80;85.20;;;;;;5036252;28;20032;-81
2023/05/02 07:09:12;;;;;;;5.10;0.80;;;12.90;84.70;;;;;;5054119;28;20029;-82
2023/05/02 07:11:38;;;;;;;6.90;1.30;;;13.00;84.10;;;;;;5036256;28;20370;-80
2023/05/02 07:14:03;;;;;;;6.57;1.10;;;13.00;83.50;;;;;;5054013;28;20058;-81
2023/05/02 07:16:29;;;;;;;5.38;0.82;;;13.10;82.90;;;;;;5065645;28;20064;-81
2023/05/02 07:18:55;;;;;;;8.60;1.13;;;13.10;82.20;;;;;;5035863;28;20036;-81
2023/05/02 07:21:20;;;;;;;7.43;1.48;;;13.20;81.60;;;;;;5053478;28;20025;-81
2023/05/02 07:23:46;;;;;;;5.28;1.15;;;13.20;81.00;;;;;;5053916;28;20031;-81
2023/05/02 07:26:12;;;;;;;6.45;1.10;;;13.30;80.50;;;;;;5052572;28;20033;-80
2023/05/02 07:28:37;;;;;;;6.32;0.82;;;13.30;79.90;;;;;;5053717;28;20037;-81
2023/05/02 07:31:03;;;;;;;6.40;0.73;;;13.40;79.20;;;;;;5053657;28;20036;-81
2023/05/02 07:33:29;;;;;;;4.82;0.70;;;13.50;78.60;;;;;;5052398;28;20025;-80
2023/05/02 07:35:55;;;;;;;4.65;0.70;;;13.50;78.10;;;;;;5053271;28;20049;-81
2023/05/02 07:38:21;;;;;;;6.43;1.30;;;13.60;77.40;;;;;;5052229;28;20408;-78
2023/05/02 07:40:46;;;;;;;7.90;0.80;;;13.60;76.70;;;;;;5052217;28;20036;-79
2023/05/02 07:43:13;;;;;;;3.08;0.75;;;13.70;76.00;;;;;;5035582;28;20025;-82
2023/05/02 07:45:38;;;;;;;3.25;0.50;;;13.70;75.50;;;;;;5053456;28;20040;-81
2023/05/02 07:48:04;;;;;;;4.30;0.80;;;13.70;74.90;;;;;;5053429;28;20068;-81
2023/05/02 07:50:30;;;;;;;4.70;0.70;;;13.80;74.50;;;;;;5053290;28;20083;-82
2023/05/02 07:52:56;;;;;;;5.30;0.65;;;13.80;73.90;;;;;;5053458;28;20057;-82
2023/05/02 07:55:22;;;;;;;3.42;0.60;;;13.80;73.50;;;;;;5052104;28;20028;-82
2023/05/02 07:57:47;;;;;;;3.90;0.80;;;13.80;73.10;;;;;;5053237;28;20057;-82
2023/05/02 08:00:13;;;;;;;5.40;0.70;;;13.80;72.70;;;;;;5053060;28;20064;-80
2023/05/02 08:02:41;;;;;;;6.43;0.75;;;13.90;72.20;;;;;;5035228;28;20535;-80
2023/05/02 08:05:07;;;;;;;7.22;1.02;;;13.80;71.80;;;;;;5051748;28;20104;-81
2023/05/02 08:07:34;;;;;;;6.25;0.82;;;13.80;71.70;;;;;;5053170;28;20057;-82
2023/05/02 08:10:00;;;;;;;8.02;1.10;;;13.80;71.60;;;;;;5052879;28;20362;-81
2023/05/02 08:12:25;;;;;;;8.00;0.98;;;13.90;71.50;;;;;;5051928;28;20040;-80
2023/05/02 08:14:51;;;;;;;9.65;1.10;;;13.90;71.40;;;;;;5051972;28;20029;-81
2023/05/02 08:17:17;;;;;;;10.90;1.67;;;13.90;71.40;;;;;;5051726;28;20036;-82
2023/05/02 08:19:42;;;;;;;8.18;1.30;;;13.90;71.30;;;;;;5051779;28;20359;-81
2023/05/02 08:22:08;;;;;;;12.48;1.30;;;14.00;71.20;;;;;;5052959;28;20032;-81
2023/05/02 08:24:33;;;;;;;7.20;1.58;;;13.90;71.00;;;;;;5053019;28;20056;-82
2023/05/02 08:26:59;;;;;;;6.20;1.08;;;14.00;70.90;;;;;;5051652;28;20477;-81
2023/05/02 08:29:25;;;;;;;6.30;0.82;;;14.10;70.90;;;;;;5051760;28;20124;-82
2023/05/02 08:31:50;;;;;;;8.07;1.05;;;14.10;70.80;;;;;;5052670;28;20048;-82
2023/05/02 08:34:16;;;;;;;8.30;0.80;;;14.10;70.50;;;;;;5051477;28;20483;-82
2023/05/02 08:36:41;;;;;;;5.22;0.93;;;14.20;70.30;;;;;;5051755;28;20044;-82
2023/05/02 08:39:08;;;;;;;7.72;0.82;;;14.20;70.10;;;;;;5051503;28;20493;-82
2023/05/02 08:41:33;;;;;;;7.25;0.70;;;14.30;69.80;;;;;;5034964;28;20025;-82
2023/05/02 08:44:01;;;;;;;4.93;0.77;;;14.40;69.50;;;;;;5051483;28;20082;-82
2023/05/02 08:46:27;;;;;;;5.85;0.70;;;14.40;69.10;;;;;;5052733;28;20067;-82
2023/05/02 08:48:57;;;;;;;4.40;0.80;;;14.50;68.80;;;;;;5051501;28;20078;-83
2023/05/02 08:51:23;;;;;;;4.50;0.80;;;14.60;68.40;;;;;;5051651;28;20032;-81
2023/05/02 08:53:50;;;;;;;3.80;0.77;;;14.70;67.80;;;;;;5051505;28;20033;-79
2023/05/02 08:56:16;;;;;;;3.97;0.50;;;14.80;67.40;;;;;;5052670;28;20032;-81
2023/05/02 08:58:42;;;;;;;2.28;0.70;;;14.80;66.90;;;;;;5052647;28;20503;-82
2023/05/02 09:01:21;;;;;;;4.38;0.77;;;14.80;66.60;;;;;;5059508;28;20575;-81
2023/05/02 09:03:47;;;;;;;3.95;0.80;;;14.90;66.00;;;;;;5072574;28;20082;-81
2023/05/02 09:06:17;;;;;;;2.35;0.45;;;15.00;65.70;;;;;;5054624;28;20066;-81
2023/05/02 09:08:44;;;;;;;4.50;0.70;;;15.10;64.90;;;;;;5071523;28;20021;-82
2023/05/02 09:11:11;;;;;;;3.35;0.52;;;15.10;64.20;;;;;;5071324;28;20029;-82
2023/05/02 09:13:45;;;;;;;4.35;1.05;;;15.20;64.50;;;;;;5071450;28;20488;-79
2023/05/02 09:16:12;;;;;;;;;;;15.20;63.30;;;;;;5073068;28;20112;-78
2023/05/02 09:18:38;;;;;;;4.90;0.85;;;15.30;63.10;;;;;;5072581;28;20010;-80
2023/05/02 09:21:25;;;;;;;5.25;0.70;;;15.30;63.20;;;;;;5072143;28;20063;-81
2023/05/02 09:23:56;;;;;;;6.90;1.30;;;15.30;62.50;;;;;;5075969;28;20016;-81
2023/05/02 09:26:32;;;;;;;5.55;0.80;;;15.30;62.30;;;;;;5076190;28;20033;-81
2023/05/02 09:29:00;;;;;;;4.38;0.73;;;15.30;62.00;;;;;;5075037;28;20024;-82
2023/05/02 09:31:35;;;;;;;4.03;0.60;;;15.40;61.80;;;;;;5074685;28;20389;-81
2023/05/02 09:34:12;;;;;;;5.80;0.70;;;15.40;61.30;;;;;;5076043;28;20078;-81
2023/05/02 09:36:45;;;;;;;7.55;1.15;;;15.40;61.00;;;;;;5075582;28;20052;-81
2023/05/02 09:39:14;;;;;;;4.45;0.77;;;15.50;60.60;;;;;;5075659;28;20035;-82
2023/05/02 09:41:41;;;;;;;3.67;0.70;;;15.50;60.30;;;;;;5075656;28;20090;-82
2023/05/02 09:44:10;;;;;;;3.45;0.68;;;15.60;60.10;;;;;;5074789;28;20055;-82
2023/05/02 09:46:44;;;;;;;5.75;1.02;;;15.70;59.70;;;;;;5074875;28;20052;-82
2023/05/02 09:49:10;;;;;;;2.97;0.50;;;15.80;59.20;;;;;;5074713;28;20071;-82
2023/05/02 09:51:36;;;;;;;4.57;0.90;;;15.80;59.00;;;;;;5074664;28;20492;-82
2023/05/02 09:54:02;;;;;;;3.58;0.80;;;15.90;58.70;;;;;;5074308;28;20033;-80
2023/05/02 09:56:28;;;;;;;2.90;0.60;;;15.90;58.30;;;;;;5074198;28;20089;-82
2023/05/02 09:59:13;;;;;;;3.63;0.63;;;16.00;57.90;;;;;;5075458;28;20123;-82
2023/05/02 10:01:41;;;;;;;2.92;0.63;;;16.00;57.40;;;;;;5075664;28;20048;-79
2023/05/02 10:04:15;;;;;;;4.18;0.70;;;16.00;57.30;;;;;;5057657;28;20425;-82
2023/05/02 10:06:45;;;;;;;2.45;0.63;;;16.00;56.90;;;;;;5075263;28;20019;-82
2023/05/02 10:09:13;;;;;;;4.05;0.55;;;16.00;56.50;;;;;;5074139;28;20036;-82
2023/05/02 10:11:42;;;;;;;2.15;0.70;;;16.10;56.40;;;;;;5075166;28;20074;-81
2023/05/02 10:14:09;;;;;;;4.22;0.60;;;16.20;56.10;;;;;;5075203;28;20033;-80
2023/05/02 10:16:46;;;;;;;3.30;0.70;;;16.20;55.80;;;;;;5073912;28;20396;-80
2023/05/02 10:19:17;;;;;;;3.78;0.73;;;16.30;55.50;;;;;;5075049;28;20067;-79
2023/05/02 10:21:43;;;;;;;3.42;0.57;;;16.30;55.30;;;;;;5075184;28;20025;-78
2023/05/02 10:24:09;;;;;;;3.40;0.50;;;16.40;55.00;;;;;;5057140;28;20034;-78
2023/05/02 10:26:35;;;;;;;3.40;0.60;;;16.30;54.70;;;;;;5069437;28;20068;-80
2023/05/02 10:29:01;;;;;;;4.22;0.90;;;16.30;54.80;;;;;;5065463;28;20079;-79
2023/05/02 10:31:33;;;;;;;6.20;0.80;;;16.30;54.70;;;;;;5054895;28;20036;-82
2023/05/02 10:34:02;;;;;;;3.08;0.55;;;16.40;54.50;;;;;;5073011;28;20020;-80
2023/05/02 10:36:28;;;;;;;4.80;0.65;;;16.50;54.20;;;;;;5074017;28;20131;-82
2023/05/02 10:38:54;;;;;;;4.43;0.63;;;16.60;53.80;;;;;;5075284;28;20056;-81
2023/05/02 10:41:25;;;;;;;4.03;0.73;;;16.60;53.60;;;;;;5074657;28;20481;-80
2023/05/02 10:43:51;;;;;;;3.40;0.75;;;16.70;53.40;;;;;;5074813;28;20020;-81
2023/05/02 10:46:39;;;;;;;5.05;1.02;;;16.80;53.20;;;;;;5074876;28;20024;-81
2023/05/02 10:49:12;;;;;;;3.05;0.60;;;16.90;52.80;;;;;;5074454;28;20433;-82
2023/05/02 10:51:40;;;;;;;4.85;0.90;;;16.90;52.70;;;;;;5073210;28;20442;-82
2023/05/02 10:54:18;;;;;;;4.80;0.73;;;17.00;52.60;;;;;;5074605;28;20385;-82
2023/05/02 10:57:02;;;;;;;4.70;0.57;;;17.10;52.20;;;;;;5074540;28;20025;-82
2023/05/02 10:59:29;;;;;;;3.53;0.57;;;17.40;52.00;;;;;;5074415;28;20036;-81
2023/05/02 11:01:56;;;;;;;2.38;0.57;;;17.60;52.00;;;;;;5072991;28;20480;-82
2023/05/02 11:04:22;;;;;;;4.03;0.80;;;17.80;51.40;;;;;;5071748;28;20031;-80
2023/05/02 11:07:00;;;;;;;3.92;0.63;;;17.90;51.10;;;;;;5074001;28;20111;-82
2023/05/02 11:09:29;;;;;;;7.93;0.95;;;18.00;51.00;;;;;;5072450;28;20120;-81
2023/05/02 11:11:56;;;;;;;5.43;0.80;;;18.10;50.90;;;;;;5070551;28;20116;-82
2023/05/02 11:14:24;;;;;;;3.45;0.68;;;18.10;50.60;;;;;;5056604;28;20032;-81
2023/05/02 11:17:09;;;;;;;5.18;0.90;;;18.10;50.40;;;;;;5053820;28;20108;-78
2023/05/02 11:19:37;;;;;;;3.67;0.68;;;18.10;50.20;;;;;;5068679;28;20037;-82
2023/05/02 11:22:23;;;;;;;3.63;0.90;;;18.20;50.30;;;;;;5053718;28;20029;-81
2023/05/02 11:24:50;;;;;;;4.40;0.73;;;18.30;50.10;;;;;;5053284;28;20082;-81
2023/05/02 11:27:28;;;;;;;2.53;0.63;;;18.40;50.20;;;;;;5053733;28;20025;-81
2023/05/02 11:29:53;;;;;;;4.93;0.85;;;18.60;49.70;;;;;;5052393;28;20025;-82
2023/05/02 11:32:19;;;;;;;5.40;0.70;;;18.60;49.50;;;;;;5053673;28;20104;-81
2023/05/02 11:34:45;;;;;;;3.05;0.70;;;18.70;49.40;;;;;;5053766;28;20355;-82
2023/05/02 11:37:13;;;;;;;3.17;0.80;;;18.80;49.10;;;;;;5053323;28;20052;-82
2023/05/02 11:39:39;;;;;;;5.35;0.70;;;19.00;49.00;;;;;;5052294;28;20037;-83
2023/05/02 11:42:05;;;;;;;2.58;0.50;;;19.30;48.70;;;;;;5052460;28;20493;-79
2023/05/02 11:44:31;;;;;;;4.00;0.93;;;19.60;48.30;;;;;;5052071;28;20043;-81
2023/05/02 11:46:56;;;;;;;4.95;0.93;;;19.80;48.00;;;;;;5053452;28;20488;-79
2023/05/02 11:49:22;;;;;;;4.40;0.82;;;20.00;47.80;;;;;;5052135;28;20044;-82
2023/05/02 11:51:48;;;;;;;4.47;0.93;;;20.10;47.60;;;;;;5052116;28;20033;-82
2023/05/02 11:54:20;;;;;;;3.42;0.95;;;20.30;47.40;;;;;;5052213;28;20603;-82
2023/05/02 11:56:47;;;;;;;3.17;0.60;;;20.50;46.90;;;;;;5051859;28;20099;-82
2023/05/02 11:59:13;;;;;;;4.20;0.75;;;20.70;46.70;;;;;;5051936;28;20033;-81
2023/05/02 12:01:49;;;;;;;5.05;1.15;;;20.90;46.30;;;;;;5035274;28;20120;-79
2023/05/02 12:04:14;;;;;;;5.80;0.80;;;20.90;45.50;;;;;;5051901;28;20048;-78
2023/05/02 12:06:54;;;;;;;5.25;0.90;;;21.00;45.60;;;;;;5053118;28;20531;-83
2023/05/02 12:09:20;;;;;;;5.25;0.90;;;21.10;45.00;;;;;;5051967;28;20473;-82
2023/05/02 12:11:52;;;;;;;4.05;0.90;;;21.30;45.20;;;;;;5035440;28;20434;-82
2023/05/02 12:14:28;;;;;;;4.75;1.00;;;21.60;44.60;;;;;;5064232;28;20052;-81
2023/05/02 12:16:57;;;;;;;6.32;1.05;;;21.80;44.20;;;;;;5071817;28;20544;-79
2023/05/02 12:19:23;;;;;;;3.25;0.90;;;22.00;44.10;;;;;;5071928;28;20024;-82
2023/05/02 12:21:49;;;;;;;5.28;1.20;;;22.20;43.80;;;;;;5071501;28;20032;-80
2023/05/02 12:24:15;;;;;;;6.20;0.93;;;22.30;43.40;;;;;;5071945;28;20033;-82
2023/05/02 12:26:41;;;;;;;6.40;0.90;;;22.50;43.40;;;;;;5073093;28;20033;-80
2023/05/02 12:29:07;;;;;;;4.20;0.73;;;22.70;43.10;;;;;;5071467;28;20029;-82
2023/05/02 12:31:33;;;;;;;4.72;1.00;;;22.80;42.80;;;;;;5055264;28;20029;-82
2023/05/02 12:34:00;;;;;;;3.40;0.82;;;23.00;42.40;;;;;;5072860;28;20530;-82
2023/05/02 12:36:29;;;;;;;4.72;0.93;;;23.20;42.00;;;;;;5072705;28;20044;-83
2023/05/02 12:39:01;;;;;;;3.78;0.80;;;23.50;41.70;;;;;;5072801;28;20028;-82
2023/05/02 12:41:31;;;;;;;4.78;1.10;;;23.60;41.30;;;;;;5073103;28;20021;-82
2023/05/02 12:43:59;;;;;;;5.25;1.02;;;23.90;40.90;;;;;;5072842;28;20047;-83
2023/05/02 12:46:27;;;;;;;3.83;0.95;;;24.00;40.80;;;;;;5055120;28;20032;-82